Time;durP1;ratioP1;P1;durP2;ratioP2;P2;SDS_P1;SDS_P2;PMS_P1;PMS_P2;Temp;Humidity;BMP_temperature;BMP_pressure;BME280_temperature;BME280_humidity;BME280_pressure;Samples;Min_cycle;Max_cycle;Signal;HPM_P1;HPM_P2
2023/05/04 00:00:51;;;;;;;8.70;7.83;;;18.30;99.90;;;;;;4996663;28;20227;-90
2023/05/04 00:03:17;;;;;;;7.67;6.93;;;18.30;99.90;;;;;;4996862;28;20188;-80
2023/05/04 00:05:43;;;;;;;8.33;7.43;;;18.30;99.90;;;;;;4995632;28;20438;-80
2023/05/04 00:08:09;;;;;;;8.27;7.30;;;18.30;99.90;;;;;;5011909;28;20227;-91
2023/05/04 00:10:34;;;;;;;8.33;7.63;;;18.20;99.90;;;;;;4995529;28;20196;-91
2023/05/04 00:13:00;;;;;;;9.17;8.37;;;18.20;99.90;;;;;;4996486;28;20172;-90
2023/05/04 00:15:26;;;;;;;8.40;7.60;;;18.20;99.90;;;;;;4996717;28;20195;-80
2023/05/04 00:17:53;;;;;;;7.33;6.60;;;18.20;99.90;;;;;;4996294;28;20255;-90
2023/05/04 00:20:19;;;;;;;8.73;7.93;;;18.20;99.90;;;;;;4996687;28;20475;-90
2023/05/04 00:22:45;;;;;;;8.10;7.30;;;18.20;99.90;;;;;;4996598;28;20915;-79
2023/05/04 00:25:11;;;;;;;9.07;8.13;;;18.10;99.90;;;;;;4996372;28;20617;-90
2023/05/04 00:27:36;;;;;;;8.23;7.43;;;18.10;99.90;;;;;;4996205;28;20176;-83
2023/05/04 00:30:02;;;;;;;13.03;8.00;;;18.10;99.90;;;;;;4996274;28;20442;-82
2023/05/04 00:32:29;;;;;;;7.90;7.20;;;18.10;99.90;;;;;;4996293;28;20544;-91
2023/05/04 00:34:55;;;;;;;8.63;7.90;;;18.10;99.90;;;;;;4995024;28;20736;-90
2023/05/04 00:37:21;;;;;;;8.43;7.63;;;18.10;99.90;;;;;;4996334;28;20438;-89
2023/05/04 00:39:46;;;;;;;9.20;8.17;;;18.10;99.90;;;;;;4996078;28;20179;-91
2023/05/04 00:42:12;;;;;;;8.03;7.33;;;18.10;99.90;;;;;;5011165;28;20202;-80
2023/05/04 00:44:40;;;;;;;8.47;7.60;;;18.10;99.90;;;;;;4994981;28;20180;-90
2023/05/04 00:47:06;;;;;;;8.60;7.73;;;18.00;99.90;;;;;;4994745;28;20203;-80
2023/05/04 00:49:33;;;;;;;8.93;8.13;;;18.00;99.90;;;;;;4996327;28;20918;-91
2023/05/04 00:52:00;;;;;;;9.27;8.20;;;18.00;99.90;;;;;;4996031;28;20791;-90
2023/05/04 00:54:27;;;;;;;9.70;8.70;;;17.90;99.90;;;;;;4994847;28;20418;-89
2023/05/04 00:56:53;;;;;;;9.20;8.27;;;17.80;99.90;;;;;;4994512;28;20516;-80
2023/05/04 00:59:18;;;;;;;7.47;6.77;;;17.80;99.90;;;;;;4995961;28;20569;-90
2023/05/04 01:01:44;;;;;;;9.40;8.57;;;17.80;99.90;;;;;;4994339;28;20626;-80
2023/05/04 01:04:10;;;;;;;9.93;8.97;;;17.80;99.90;;;;;;4994109;28;20690;-80
2023/05/04 01:07:07;;;;;;;9.50;8.60;;;17.80;99.90;;;;;;4994987;28;20278;-91
2023/05/04 01:09:41;;;;;;;9.13;8.23;;;17.90;99.90;;;;;;4995952;28;20417;-90
2023/05/04 01:12:20;;;;;;;9.90;8.53;;;17.80;99.90;;;;;;4994055;28;20456;-90
2023/05/04 01:14:46;;;;;;;9.00;8.10;;;17.80;99.90;;;;;;4998295;28;20429;-80
2023/05/04 01:17:12;;;;;;;8.20;7.40;;;17.80;99.90;;;;;;4995424;28;20472;-88
2023/05/04 01:19:38;;;;;;;9.10;8.20;;;17.80;99.90;;;;;;4995684;28;20215;-79
2023/05/04 01:22:04;;;;;;;9.73;8.07;;;17.70;99.90;;;;;;4995255;28;20468;-88
2023/05/04 01:24:30;;;;;;;8.90;8.00;;;17.70;99.90;;;;;;4995704;28;20176;-80
2023/05/04 01:27:10;;;;;;;9.23;8.33;;;17.70;99.90;;;;;;4993760;28;20437;-79
2023/05/04 01:30:01;;;;;;;10.20;9.20;;;17.70;99.90;;;;;;5010362;28;20431;-91
2023/05/04 01:32:29;;;;;;;10.03;9.03;;;17.60;99.90;;;;;;4993902;28;20434;-89
2023/05/04 01:34:55;;;;;;;10.13;8.83;;;17.60;99.90;;;;;;4995125;28;20785;-80
2023/05/04 01:37:21;;;;;;;10.37;9.47;;;17.60;99.90;;;;;;4994875;28;20410;-80
2023/05/04 01:39:47;;;;;;;9.83;8.47;;;17.50;99.90;;;;;;5010401;28;20767;-85
2023/05/04 01:42:12;;;;;;;12.43;8.60;;;17.50;99.90;;;;;;4993944;28;20190;-89
2023/05/04 01:44:39;;;;;;;9.60;8.30;;;17.50;99.90;;;;;;4995380;28;20176;-88
2023/05/04 01:47:05;;;;;;;11.60;8.60;;;17.40;99.90;;;;;;4993761;28;20648;-90
2023/05/04 01:49:31;;;;;;;9.33;8.43;;;17.40;99.90;;;;;;4995454;28;20434;-89
2023/05/04 01:51:57;;;;;;;9.07;8.17;;;17.40;99.90;;;;;;4994698;28;20513;-80
2023/05/04 01:54:23;;;;;;;8.80;7.90;;;17.40;99.90;;;;;;4995201;28;20421;-80
2023/05/04 01:56:49;;;;;;;9.83;8.10;;;17.40;99.90;;;;;;4993597;28;20524;-80
2023/05/04 01:59:14;;;;;;;9.10;8.20;;;17.30;99.90;;;;;;4994826;28;20262;-90
2023/05/04 02:01:40;;;;;;;7.93;7.13;;;17.30;99.90;;;;;;4994822;28;20210;-80
2023/05/04 02:04:06;;;;;;;8.30;7.50;;;17.30;99.90;;;;;;4995209;28;20223;-91
2023/05/04 02:06:32;;;;;;;9.20;7.50;;;17.30;99.90;;;;;;4994701;28;20246;-89
2023/05/04 02:08:57;;;;;;;7.80;7.00;;;17.20;99.90;;;;;;4993876;28;20424;-80
2023/05/04 02:11:23;;;;;;;9.93;8.50;;;17.30;99.90;;;;;;4995771;28;20239;-89
2023/05/04 02:13:49;;;;;;;8.90;7.50;;;17.20;99.90;;;;;;4999230;28;20184;-80
2023/05/04 02:16:15;;;;;;;8.10;6.83;;;17.10;99.90;;;;;;5011302;28;20958;-79
2023/05/04 02:18:40;;;;;;;11.77;7.63;;;17.10;99.90;;;;;;5014165;28;20274;-90
2023/05/04 02:21:06;;;;;;;11.43;8.37;;;17.00;99.90;;;;;;4997387;28;20207;-80
2023/05/04 02:23:32;;;;;;;9.30;8.30;;;17.00;99.90;;;;;;4998430;28;20267;-83
2023/05/04 02:25:58;;;;;;;8.00;7.20;;;17.00;99.90;;;;;;5013404;28;20254;-89
2023/05/04 02:28:23;;;;;;;7.80;7.00;;;16.90;99.90;;;;;;4997214;28;20175;-89
2023/05/04 02:30:49;;;;;;;8.20;7.23;;;16.80;99.90;;;;;;4997339;28;20735;-90
2023/05/04 02:33:14;;;;;;;10.10;7.80;;;16.80;99.90;;;;;;4997385;28;20539;-80
2023/05/04 02:35:40;;;;;;;9.33;7.97;;;16.80;99.90;;;;;;4998509;28;20545;-90
2023/05/04 02:38:06;;;;;;;8.33;7.40;;;16.80;99.90;;;;;;4998405;28;20207;-79
2023/05/04 02:40:32;;;;;;;8.80;7.90;;;16.80;99.90;;;;;;4996936;28;20265;-79
2023/05/04 02:42:57;;;;;;;8.20;7.40;;;16.80;99.90;;;;;;4998256;28;20171;-79
2023/05/04 02:45:23;;;;;;;11.47;8.33;;;16.80;99.90;;;;;;4997158;28;20438;-80
2023/05/04 02:47:49;;;;;;;10.57;8.20;;;16.80;99.90;;;;;;5013463;28;20182;-90
2023/05/04 02:50:14;;;;;;;10.70;8.93;;;16.70;99.90;;;;;;4997167;28;20204;-90
2023/05/04 02:52:40;;;;;;;9.13;8.23;;;16.70;99.90;;;;;;4997995;28;20176;-79
2023/05/04 02:55:06;;;;;;;9.67;8.67;;;16.60;99.90;;;;;;4998381;28;20196;-80
2023/05/04 02:57:32;;;;;;;11.80;10.37;;;16.70;99.90;;;;;;5000917;28;20187;-79
2023/05/04 02:59:57;;;;;;;12.87;10.23;;;16.60;99.90;;;;;;4999329;28;20200;-79
2023/05/04 03:02:23;;;;;;;10.73;8.53;;;16.60;99.90;;;;;;5012827;28;20176;-87
2023/05/04 03:04:49;;;;;;;10.10;8.27;;;16.50;99.90;;;;;;4996457;28;20243;-90
2023/05/04 03:07:15;;;;;;;9.07;7.93;;;16.50;99.90;;;;;;5013236;28;20504;-80
2023/05/04 03:09:41;;;;;;;10.30;8.40;;;16.40;99.90;;;;;;4998191;28;20456;-90
2023/05/04 03:12:06;;;;;;;8.90;7.97;;;16.40;99.90;;;;;;4997477;28;20184;-89
2023/05/04 03:14:32;;;;;;;10.10;8.83;;;16.40;99.90;;;;;;4996844;28;20199;-90
2023/05/04 03:16:58;;;;;;;9.23;8.10;;;16.40;99.90;;;;;;4997459;28;20241;-80
2023/05/04 03:19:24;;;;;;;9.23;8.23;;;16.40;99.90;;;;;;5012687;28;20251;-79
2023/05/04 03:21:50;;;;;;;14.17;8.33;;;16.40;99.90;;;;;;4996170;28;20234;-90
2023/05/04 03:24:17;;;;;;;10.67;8.80;;;16.40;99.90;;;;;;4996762;28;20433;-80
2023/05/04 03:26:43;;;;;;;12.53;9.10;;;16.40;99.90;;;;;;4997203;28;20196;-89
2023/05/04 03:29:09;;;;;;;11.40;9.20;;;16.40;99.90;;;;;;4995618;28;20429;-80
2023/05/04 03:31:35;;;;;;;10.90;8.57;;;16.30;99.90;;;;;;4996059;28;20453;-90
2023/05/04 03:34:02;;;;;;;10.40;8.87;;;16.30;99.90;;;;;;4995963;28;20190;-90
2023/05/04 03:36:28;;;;;;;11.70;8.47;;;16.40;99.90;;;;;;4995992;28;20439;-80
2023/05/04 03:38:54;;;;;;;10.73;7.93;;;16.40;99.90;;;;;;4998191;28;20477;-79
2023/05/04 03:41:20;;;;;;;9.83;8.83;;;16.50;99.90;;;;;;5005079;28;20453;-79
2023/05/04 03:43:46;;;;;;;10.33;8.40;;;16.70;99.90;;;;;;4995629;28;20437;-79
2023/05/04 03:46:11;;;;;;;9.67;8.30;;;16.70;99.90;;;;;;4997014;28;20199;-80
2023/05/04 03:48:38;;;;;;;10.37;8.10;;;16.70;99.90;;;;;;4996089;28;20198;-90
2023/05/04 03:51:05;;;;;;;11.23;8.70;;;16.80;99.90;;;;;;5012111;28;20471;-80
2023/05/04 03:53:33;;;;;;;11.13;8.60;;;16.80;99.90;;;;;;5012245;28;20420;-80
2023/05/04 03:55:58;;;;;;;9.53;8.30;;;16.90;99.90;;;;;;4996555;28;20863;-90
2023/05/04 03:58:24;;;;;;;11.07;9.63;;;17.00;99.90;;;;;;4996728;28;20560;-79
2023/05/04 04:00:50;;;;;;;12.23;9.30;;;17.00;99.90;;;;;;4995598;28;20203;-90
2023/05/04 04:03:16;;;;;;;13.13;9.37;;;17.10;99.90;;;;;;4995893;28;20179;-89
2023/05/04 04:05:42;;;;;;;11.40;9.47;;;17.10;99.90;;;;;;4996669;28;20433;-81
2023/05/04 04:08:08;;;;;;;9.50;8.60;;;17.10;99.90;;;;;;4994970;28;20203;-80
2023/05/04 04:10:34;;;;;;;11.67;8.37;;;17.10;99.90;;;;;;4995287;28;20433;-80
2023/05/04 04:13:00;;;;;;;25.03;16.43;;;17.10;99.90;;;;;;4996668;28;20182;-90
2023/05/04 04:15:26;;;;;;;11.83;9.87;;;17.10;99.90;;;;;;4990921;28;20963;-91
2023/05/04 04:17:52;;;;;;;11.43;10.20;;;17.10;99.90;;;;;;4984414;28;20843;-83
2023/05/04 04:20:17;;;;;;;15.00;9.17;;;17.10;99.90;;;;;;4990080;28;20299;-80
2023/05/04 04:22:43;;;;;;;10.77;9.27;;;17.10;99.90;;;;;;5002139;28;20500;-79
2023/05/04 04:25:09;;;;;;;12.10;9.83;;;17.20;99.90;;;;;;4978288;28;20734;-89
2023/05/04 04:27:36;;;;;;;9.80;8.50;;;17.20;99.90;;;;;;4975513;28;20176;-89
2023/05/04 04:30:03;;;;;;;10.23;8.63;;;17.20;99.90;;;;;;4976589;28;20430;-79
2023/05/04 04:32:28;;;;;;;8.53;7.60;;;17.20;99.90;;;;;;4989524;28;20903;-79
2023/05/04 04:34:54;;;;;;;9.77;7.57;;;17.20;99.90;;;;;;4994595;28;20425;-79
2023/05/04 04:37:20;;;;;;;8.77;6.97;;;17.20;99.90;;;;;;4994118;28;20263;-79
2023/05/04 04:39:46;;;;;;;46.70;8.60;;;17.30;99.90;;;;;;4994028;28;20212;-83
2023/05/04 04:42:12;;;;;;;7.57;6.80;;;17.30;99.90;;;;;;4989258;28;20549;-81
2023/05/04 04:44:38;;;;;;;10.13;7.63;;;17.30;99.90;;;;;;4985626;28;20577;-80
2023/05/04 04:47:04;;;;;;;9.43;7.40;;;17.40;99.90;;;;;;4993918;28;20251;-81
2023/05/04 04:49:29;;;;;;;10.47;7.73;;;17.40;99.90;;;;;;4973519;28;20438;-80
2023/05/04 04:51:55;;;;;;;8.63;7.53;;;17.40;99.90;;;;;;4974609;28;20207;-90
2023/05/04 04:54:21;;;;;;;8.73;7.83;;;17.40;99.90;;;;;;4976989;28;20180;-80
2023/05/04 04:56:46;;;;;;;7.80;7.00;;;17.40;99.90;;;;;;4974456;28;20445;-90
2023/05/04 04:59:12;;;;;;;8.73;7.27;;;17.50;99.90;;;;;;4989987;28;20226;-88
2023/05/04 05:01:40;;;;;;;7.27;6.20;;;17.40;99.90;;;;;;4989921;28;20208;-89
2023/05/04 05:04:06;;;;;;;8.37;7.37;;;17.50;99.90;;;;;;4975400;28;20882;-80
2023/05/04 05:06:32;;;;;;;6.90;6.23;;;17.50;99.90;;;;;;4981719;28;20439;-85
2023/05/04 05:08:58;;;;;;;9.23;6.60;;;17.50;99.90;;;;;;4982099;28;20192;-87
2023/05/04 05:11:24;;;;;;;8.33;6.80;;;17.50;99.90;;;;;;5000804;28;20214;-79
2023/05/04 05:13:50;;;;;;;10.00;6.70;;;17.50;99.90;;;;;;4972807;28;20450;-88
2023/05/04 05:16:15;;;;;;;8.43;6.50;;;17.50;99.90;;;;;;4986476;28;20452;-79
2023/05/04 05:18:41;;;;;;;9.60;7.10;;;17.50;99.90;;;;;;5008080;28;21073;-79
2023/05/04 05:21:08;;;;;;;9.50;6.90;;;17.50;99.90;;;;;;4993705;28;20724;-81
2023/05/04 05:23:34;;;;;;;9.37;6.40;;;17.50;99.90;;;;;;4988660;28;20479;-87
2023/05/04 05:26:00;;;;;;;32.87;21.60;;;17.50;99.90;;;;;;4972862;28;20581;-78
2023/05/04 05:28:26;;;;;;;7.27;6.00;;;17.50;99.90;;;;;;4973704;28;20462;-89
2023/05/04 05:30:52;;;;;;;7.83;6.53;;;17.60;99.90;;;;;;4982996;28;21024;-88
2023/05/04 05:33:17;;;;;;;8.00;6.57;;;17.60;99.90;;;;;;5010003;28;20207;-79
2023/05/04 05:35:43;;;;;;;7.60;6.30;;;17.50;99.90;;;;;;4993835;28;20265;-88
2023/05/04 05:38:10;;;;;;;6.87;6.00;;;17.40;99.90;;;;;;4992231;28;20208;-88
2023/05/04 05:40:36;;;;;;;13.10;7.27;;;17.30;99.90;;;;;;4983310;28;20449;-90
2023/05/04 05:43:04;;;;;;;7.53;6.70;;;17.30;99.90;;;;;;4985043;28;20429;-79
2023/05/04 05:45:30;;;;;;;7.87;6.40;;;17.20;99.90;;;;;;4973805;28;20267;-79
2023/05/04 05:47:55;;;;;;;7.93;5.97;;;17.20;99.90;;;;;;4973413;28;20426;-79
2023/05/04 05:50:22;;;;;;;9.63;6.87;;;17.10;99.90;;;;;;4973906;28;20251;-80
2023/05/04 05:52:48;;;;;;;6.70;6.00;;;17.10;99.90;;;;;;4975183;28;20202;-79
2023/05/04 05:55:14;;;;;;;6.97;5.50;;;17.10;99.90;;;;;;4992549;28;20544;-89
2023/05/04 05:57:39;;;;;;;8.90;6.30;;;17.10;99.90;;;;;;4988300;28;20659;-80
2023/05/04 06:00:06;;;;;;;6.47;5.80;;;17.20;99.90;;;;;;4989508;28;20444;-89
2023/05/04 06:02:31;;;;;;;6.90;5.40;;;17.20;99.90;;;;;;4973733;28;20239;-88
2023/05/04 06:04:57;;;;;;;7.10;6.40;;;17.10;99.90;;;;;;4974791;28;20470;-89
2023/05/04 06:07:23;;;;;;;6.47;5.90;;;17.10;99.90;;;;;;4974074;28;20190;-88
2023/05/04 06:09:49;;;;;;;7.00;5.43;;;17.10;99.90;;;;;;4973933;28;20451;-90
2023/05/04 06:12:16;;;;;;;6.90;5.53;;;17.10;99.90;;;;;;4973391;28;20283;-89
2023/05/04 06:14:42;;;;;;;6.73;5.60;;;17.10;99.90;;;;;;4973880;28;20423;-79
2023/05/04 06:17:08;;;;;;;5.50;4.90;;;17.10;99.90;;;;;;4983719;28;20517;-88
2023/05/04 06:19:36;;;;;;;7.60;5.00;;;17.10;99.90;;;;;;4981371;28;20485;-79
2023/05/04 06:22:02;;;;;;;5.73;5.10;;;17.10;99.90;;;;;;4989820;28;20424;-88
2023/05/04 06:24:29;;;;;;;7.00;5.70;;;17.10;99.90;;;;;;4992083;28;20433;-80
2023/05/04 06:26:55;;;;;;;6.77;5.73;;;17.10;99.90;;;;;;4972605;28;20498;-88
2023/05/04 06:29:21;;;;;;;6.17;5.60;;;17.10;99.90;;;;;;4989388;28;20425;-89
2023/05/04 06:31:47;;;;;;;6.03;5.43;;;17.10;99.90;;;;;;4987717;28;20821;-79
2023/05/04 06:34:15;;;;;;;5.60;5.10;;;17.20;99.90;;;;;;5004471;28;20697;-90
2023/05/04 06:36:41;;;;;;;5.03;4.50;;;17.20;99.90;;;;;;4994056;28;20206;-80
2023/05/04 06:39:07;;;;;;;6.37;5.10;;;17.20;99.90;;;;;;4989801;28;20955;-80
2023/05/04 06:41:33;;;;;;;8.33;5.50;;;17.20;99.90;;;;;;4976382;28;20212;-80
2023/05/04 06:43:59;;;;;;;7.57;5.03;;;17.20;99.90;;;;;;4976805;28;20462;-79
2023/05/04 06:46:25;;;;;;;6.70;4.50;;;17.30;99.90;;;;;;4983275;28;20489;-87
2023/05/04 06:48:53;;;;;;;5.50;4.80;;;17.30;99.90;;;;;;4973713;28;20214;-89
2023/05/04 06:51:19;;;;;;;5.63;5.10;;;17.30;99.90;;;;;;4982347;28;20542;-89
2023/05/04 06:53:46;;;;;;;6.03;5.10;;;17.40;99.90;;;;;;4985933;28;20525;-88
2023/05/04 06:56:12;;;;;;;6.13;5.40;;;17.40;99.90;;;;;;4975127;28;20999;-89
2023/05/04 06:58:37;;;;;;;5.30;4.80;;;17.40;99.90;;;;;;4972826;28;20750;-88
2023/05/04 07:01:07;;;;;;;5.50;5.00;;;17.40;99.90;;;;;;4990745;28;20433;-89
2023/05/04 07:03:33;;;;;;;5.53;4.60;;;17.50;99.90;;;;;;4984722;28;20184;-78
2023/05/04 07:05:59;;;;;;;6.23;5.10;;;17.60;99.90;;;;;;4988989;28;20962;-80
2023/05/04 07:08:24;;;;;;;6.87;5.90;;;17.60;99.90;;;;;;4991306;28;20193;-88
2023/05/04 07:10:50;;;;;;;5.37;4.87;;;17.70;99.90;;;;;;4994490;28;20215;-80
2023/05/04 07:13:16;;;;;;;29.73;17.63;;;17.70;99.90;;;;;;4985243;28;20215;-79
2023/05/04 07:15:42;;;;;;;7.93;6.57;;;17.70;99.90;;;;;;4990148;28;20203;-79
2023/05/04 07:18:08;;;;;;;6.60;5.57;;;17.70;99.90;;;;;;4995327;28;20472;-88
2023/05/04 07:20:34;;;;;;;6.43;5.73;;;17.80;99.90;;;;;;4993579;28;20204;-80
2023/05/04 07:23:00;;;;;;;5.67;5.10;;;17.90;99.90;;;;;;4995591;28;20424;-80
2023/05/04 07:25:26;;;;;;;6.63;5.07;;;17.90;99.90;;;;;;4996729;28;20301;-81
2023/05/04 07:27:53;;;;;;;12.27;11.03;;;17.90;99.90;;;;;;4995952;28;20660;-81
2023/05/04 07:30:20;;;;;;;5.77;5.00;;;18.00;99.90;;;;;;4991542;28;20486;-88
2023/05/04 07:32:45;;;;;;;5.33;4.77;;;18.00;99.90;;;;;;4973797;28;20778;-79
2023/05/04 07:35:11;;;;;;;6.00;5.30;;;18.10;99.90;;;;;;4973019;28;20446;-88
2023/05/04 07:37:37;;;;;;;6.93;4.80;;;18.20;99.90;;;;;;4973511;28;20595;-79
2023/05/04 07:40:07;;;;;;;8.13;5.13;;;18.30;99.90;;;;;;4983010;28;20716;-80
2023/05/04 07:42:33;;;;;;;6.03;5.10;;;18.50;99.90;;;;;;4988667;28;20875;-89
2023/05/04 07:44:59;;;;;;;6.73;5.13;;;18.60;99.90;;;;;;4980277;28;20551;-88
2023/05/04 07:47:26;;;;;;;6.20;4.93;;;18.70;99.90;;;;;;4978274;28;20443;-88
2023/05/04 07:49:52;;;;;;;5.27;4.77;;;18.80;99.90;;;;;;4992203;28;20410;-82
2023/05/04 07:52:17;;;;;;;6.90;5.80;;;18.80;99.90;;;;;;4976981;28;20405;-90
2023/05/04 07:54:52;;;;;;;6.60;5.53;;;18.90;99.90;;;;;;4992378;28;20783;-81
2023/05/04 07:57:18;;;;;;;5.80;5.30;;;18.90;99.90;;;;;;4996773;28;20421;-80
2023/05/04 07:59:44;;;;;;;7.27;5.77;;;18.90;99.90;;;;;;4977206;28;21001;-89
2023/05/04 08:02:10;;;;;;;6.50;5.47;;;18.90;99.90;;;;;;4976926;28;20830;-89
2023/05/04 08:04:36;;;;;;;7.13;6.00;;;19.00;99.90;;;;;;4981271;28;20482;-88
2023/05/04 08:07:01;;;;;;;8.17;7.37;;;19.00;99.90;;;;;;4974552;28;20447;-87
2023/05/04 08:09:27;;;;;;;6.40;5.80;;;19.10;99.90;;;;;;4976216;28;20194;-80
2023/05/04 08:11:52;;;;;;;9.20;6.33;;;19.20;99.90;;;;;;4977517;28;20954;-80
2023/05/04 08:14:18;;;;;;;7.00;5.60;;;19.20;99.90;;;;;;4991845;28;20230;-89
2023/05/04 08:16:44;;;;;;;7.70;5.70;;;19.30;99.90;;;;;;4987628;28;20209;-79
2023/05/04 08:19:11;;;;;;;6.63;5.90;;;19.30;99.90;;;;;;4989808;28;20223;-80
2023/05/04 08:21:39;;;;;;;6.53;6.03;;;19.30;99.90;;;;;;4985519;28;20211;-89
2023/05/04 08:24:05;;;;;;;6.10;5.50;;;19.40;99.90;;;;;;4992709;28;20447;-89
2023/05/04 08:26:30;;;;;;;7.50;6.73;;;19.40;99.90;;;;;;4981391;28;20436;-80
2023/05/04 08:29:06;;;;;;;6.27;5.37;;;19.50;99.90;;;;;;4982012;28;20718;-89
2023/05/04 08:31:32;;;;;;;5.70;5.17;;;19.50;99.90;;;;;;4993124;28;20236;-89
2023/05/04 08:33:57;;;;;;;8.30;5.90;;;19.60;99.90;;;;;;4985912;28;20443;-80
2023/05/04 08:36:23;;;;;;;6.67;5.90;;;19.60;99.90;;;;;;4994185;28;20451;-89
2023/05/04 08:38:49;;;;;;;6.50;5.60;;;19.70;99.90;;;;;;4994249;28;20221;-89
2023/05/04 08:41:15;;;;;;;6.80;5.20;;;19.70;99.90;;;;;;4997715;28;20510;-80
2023/05/04 08:43:42;;;;;;;6.47;5.20;;;19.80;99.90;;;;;;4981595;28;20183;-88
2023/05/04 08:46:09;;;;;;;7.63;5.57;;;19.90;99.90;;;;;;4988820;28;20969;-83
2023/05/04 08:48:35;;;;;;;7.47;5.67;;;20.00;99.90;;;;;;4987264;28;21012;-89
2023/05/04 08:51:03;;;;;;;6.37;5.73;;;20.10;99.90;;;;;;4973139;28;20514;-79
2023/05/04 08:53:30;;;;;;;7.37;6.37;;;20.30;99.90;;;;;;4976223;28;20445;-79
2023/05/04 08:55:58;;;;;;;6.53;5.87;;;20.40;99.90;;;;;;4982073;28;20469;-80
2023/05/04 08:58:24;;;;;;;7.87;5.57;;;20.60;99.90;;;;;;4972363;28;21215;-89
2023/05/04 09:00:51;;;;;;;14.40;5.67;;;20.60;99.90;;;;;;4982120;28;20520;-89
2023/05/04 09:03:18;;;;;;;6.50;5.57;;;20.80;99.90;;;;;;4982898;28;20426;-80
2023/05/04 09:05:45;;;;;;;26.77;20.33;;;20.90;99.90;;;;;;4973062;28;20502;-80
2023/05/04 09:08:10;;;;;;;14.93;10.97;;;21.10;99.90;;;;;;4974999;28;20418;-80
2023/05/04 09:10:36;;;;;;;6.70;6.10;;;21.20;99.90;;;;;;4979266;28;20950;-80
2023/05/04 09:13:02;;;;;;;5.60;5.10;;;21.30;99.90;;;;;;4982111;28;21006;-89
2023/05/04 09:15:28;;;;;;;9.53;5.43;;;21.40;99.90;;;;;;4990299;28;20262;-88
2023/05/04 09:18:00;;;;;;;5.63;5.13;;;21.50;99.90;;;;;;4983101;28;20187;-89
2023/05/04 09:20:26;;;;;;;6.80;6.10;;;21.50;99.90;;;;;;4983252;28;20195;-89
2023/05/04 09:23:05;;;;;;;6.83;6.13;;;21.50;99.90;;;;;;4974447;28;20513;-88
2023/05/04 09:25:31;;;;;;;5.60;5.20;;;21.60;99.90;;;;;;4980544;28;20785;-89
2023/05/04 09:27:57;;;;;;;5.97;5.47;;;21.70;99.90;;;;;;4976799;28;20436;-87
2023/05/04 09:30:23;;;;;;;5.70;5.20;;;21.80;99.90;;;;;;4980471;28;20457;-80
2023/05/04 09:32:49;;;;;;;5.50;5.00;;;21.80;99.90;;;;;;4976548;28;20597;-88
2023/05/04 09:35:26;;;;;;;6.33;5.73;;;21.90;99.90;;;;;;4981743;28;20309;-80
2023/05/04 09:37:52;;;;;;;4.87;4.47;;;22.00;99.90;;;;;;4982316;28;20190;-81
2023/05/04 09:40:28;;;;;;;5.30;4.80;;;22.10;99.90;;;;;;4974962;28;20987;-80
2023/05/04 09:42:57;;;;;;;6.03;5.43;;;22.20;99.90;;;;;;4974611;28;20199;-89
2023/05/04 09:45:23;;;;;;;5.70;5.20;;;22.30;99.90;;;;;;4979711;28;20457;-88
2023/05/04 09:47:51;;;;;;;6.47;4.70;;;22.40;99.90;;;;;;4973307;28;20437;-88
2023/05/04 09:50:22;;;;;;;5.70;5.10;;;22.50;99.90;;;;;;4977983;28;20480;-80
2023/05/04 09:52:48;;;;;;;6.30;5.27;;;22.50;99.90;;;;;;4988749;28;20442;-80
2023/05/04 09:55:16;;;;;;;7.30;5.40;;;22.60;99.90;;;;;;4982816;28;20473;-80
2023/05/04 09:57:43;;;;;;;5.80;5.20;;;22.60;99.90;;;;;;4974539;28;20430;-81
2023/05/04 10:00:15;;;;;;;6.43;5.40;;;22.60;99.90;;;;;;4978526;28;20553;-81
2023/05/04 10:02:43;;;;;;;5.77;5.00;;;22.70;99.90;;;;;;4982950;28;20998;-90
2023/05/04 10:05:13;;;;;;;5.93;5.43;;;22.70;99.90;;;;;;4980243;28;20493;-91
2023/05/04 10:07:39;;;;;;;5.77;5.23;;;22.80;99.90;;;;;;4986699;28;20440;-81
2023/05/04 10:10:06;;;;;;;6.50;5.80;;;22.80;99.90;;;;;;4973084;28;20481;-81
2023/05/04 10:12:32;;;;;;;5.50;5.00;;;22.80;99.90;;;;;;4982777;28;20512;-82
2023/05/04 10:14:58;;;;;;;6.97;4.40;;;22.80;99.90;;;;;;4981140;28;20533;-90
2023/05/04 10:17:34;;;;;;;7.93;5.57;;;22.80;99.90;;;;;;4979765;28;20215;-89
2023/05/04 10:20:06;;;;;;;7.10;4.70;;;22.90;99.90;;;;;;4971518;28;20481;-90
2023/05/04 10:22:45;;;;;;;5.37;4.87;;;23.10;99.90;;;;;;4980746;28;20433;-82
2023/05/04 10:25:22;;;;;;;6.30;5.67;;;23.20;99.90;;;;;;4979506;28;20472;-90
2023/05/04 10:28:06;;;;;;;5.13;4.70;;;23.20;99.90;;;;;;4979873;28;20438;-90
2023/05/04 10:30:32;;;;;;;4.90;4.47;;;23.20;99.90;;;;;;4991240;28;20457;-87
2023/05/04 10:32:58;;;;;;;5.40;5.00;;;23.30;99.90;;;;;;4980121;28;20426;-82
2023/05/04 10:35:24;;;;;;;5.73;5.13;;;23.30;99.60;;;;;;4986571;28;20207;-81
2023/05/04 10:37:55;;;;;;;4.90;4.40;;;23.30;99.50;;;;;;4980097;28;20434;-81
2023/05/04 10:40:36;;;;;;;6.80;4.97;;;23.30;99.70;;;;;;4983458;28;20466;-91
2023/05/04 10:43:02;;;;;;;4.97;4.57;;;23.30;99.60;;;;;;4986464;28;21076;-88
2023/05/04 10:45:36;;;;;;;4.30;4.00;;;23.40;99.30;;;;;;4981608;28;20487;-82
2023/05/04 10:48:03;;;;;;;4.60;4.20;;;23.50;99.60;;;;;;4982858;28;20445;-90
2023/05/04 10:50:48;;;;;;;8.40;4.63;;;23.50;99.20;;;;;;4982924;28;20527;-81
2023/05/04 10:53:15;;;;;;;4.83;4.43;;;23.60;98.70;;;;;;4984519;28;20490;-81
2023/05/04 10:55:46;;;;;;;4.30;4.00;;;23.60;98.60;;;;;;4980882;28;20488;-90
2023/05/04 10:58:15;;;;;;;5.07;4.60;;;23.70;98.60;;;;;;4988065;28;20516;-89
2023/05/04 11:00:44;;;;;;;5.53;5.03;;;23.80;98.80;;;;;;4981480;28;20453;-91
2023/05/04 11:03:11;;;;;;;4.17;3.87;;;23.80;98.60;;;;;;4980127;28;20447;-91
2023/05/04 11:05:42;;;;;;;5.10;4.70;;;23.90;98.00;;;;;;4983754;28;20986;-82
2023/05/04 11:08:24;;;;;;;6.30;4.63;;;23.90;97.90;;;;;;4974047;28;20476;-90
2023/05/04 11:11:05;;;;;;;5.67;4.87;;;23.80;97.90;;;;;;4981944;28;20796;-90
2023/05/04 11:13:33;;;;;;;6.07;5.37;;;23.80;97.70;;;;;;4976698;28;20441;-89
2023/05/04 11:15:59;;;;;;;5.03;4.60;;;23.80;97.80;;;;;;4981298;28;20820;-81
2023/05/04 11:18:29;;;;;;;4.43;4.03;;;23.80;98.40;;;;;;4983121;28;20694;-91
2023/05/04 11:20:56;;;;;;;5.00;4.50;;;23.80;98.10;;;;;;4977579;28;20458;-81
2023/05/04 11:23:22;;;;;;;5.03;4.53;;;23.80;97.80;;;;;;4982178;28;20426;-86
2023/05/04 11:25:48;;;;;;;6.30;4.10;;;23.80;97.80;;;;;;4974545;28;20834;-82
2023/05/04 11:28:13;;;;;;;4.60;4.10;;;23.80;97.50;;;;;;5000125;28;20292;-90
2023/05/04 11:30:41;;;;;;;4.80;4.30;;;23.80;97.60;;;;;;4979387;28;20208;-91
2023/05/04 11:33:11;;;;;;;4.90;4.50;;;23.70;97.10;;;;;;4986992;28;20224;-82
2023/05/04 11:35:37;;;;;;;4.90;4.37;;;23.70;97.40;;;;;;4978633;28;20450;-81
2023/05/04 11:38:07;;;;;;;5.70;4.27;;;23.80;97.50;;;;;;4982245;28;21311;-81
2023/05/04 11:40:33;;;;;;;5.37;4.90;;;23.80;97.40;;;;;;4984345;28;20460;-89
2023/05/04 11:43:00;;;;;;;4.67;4.27;;;23.80;97.20;;;;;;4990586;28;21089;-81
2023/05/04 11:45:35;;;;;;;5.07;4.67;;;23.80;96.90;;;;;;4990746;28;20454;-90
2023/05/04 11:48:01;;;;;;;4.97;4.47;;;23.80;97.00;;;;;;4988233;28;22029;-89
2023/05/04 11:50:28;;;;;;;4.23;3.83;;;23.70;96.90;;;;;;4988777;28;20461;-82
2023/05/04 11:53:11;;;;;;;4.60;4.30;;;23.80;97.10;;;;;;4989692;28;20995;-82
2023/05/04 11:55:37;;;;;;;4.80;4.40;;;23.80;97.20;;;;;;4985188;28;20835;-88
2023/05/04 11:58:04;;;;;;;4.73;4.33;;;23.90;96.70;;;;;;4985109;28;20499;-89
2023/05/04 12:00:38;;;;;;;5.20;4.70;;;23.90;96.50;;;;;;4985386;28;20460;-81
2023/05/04 12:03:08;;;;;;;3.97;3.63;;;24.00;96.10;;;;;;4975671;28;20439;-90
2023/05/04 12:05:35;;;;;;;4.80;4.40;;;24.00;96.30;;;;;;4979517;28;20688;-80
2023/05/04 12:08:02;;;;;;;4.80;4.40;;;24.10;96.00;;;;;;4983644;28;20443;-79
2023/05/04 12:10:28;;;;;;;4.73;4.33;;;24.20;95.80;;;;;;4980416;28;21017;-80
2023/05/04 12:12:54;;;;;;;4.40;4.00;;;24.20;95.50;;;;;;4976409;28;20446;-81
2023/05/04 12:15:35;;;;;;;4.80;4.40;;;24.20;95.60;;;;;;4980264;28;20841;-89
2023/05/04 12:18:01;;;;;;;5.70;4.53;;;24.20;95.70;;;;;;4976256;28;20351;-80
2023/05/04 12:20:28;;;;;;;5.10;4.60;;;24.10;95.80;;;;;;4974803;28;20760;-87
2023/05/04 12:23:04;;;;;;;5.80;4.80;;;24.10;95.60;;;;;;4980022;28;20426;-88
2023/05/04 12:25:29;;;;;;;5.97;4.50;;;24.10;95.80;;;;;;4983682;28;20495;-89
2023/05/04 12:27:56;;;;;;;4.60;4.20;;;24.10;95.80;;;;;;4970235;28;20465;-80
2023/05/04 12:30:21;;;;;;;5.87;4.67;;;24.00;95.90;;;;;;4983699;28;20224;-81
2023/05/04 12:32:47;;;;;;;5.17;4.77;;;24.00;95.90;;;;;;4975923;28;20434;-80
2023/05/04 12:35:13;;;;;;;4.47;4.10;;;24.00;95.90;;;;;;4972447;28;20213;-90
2023/05/04 12:37:38;;;;;;;4.20;3.90;;;24.10;95.80;;;;;;4978286;28;20189;-87
2023/05/04 12:40:06;;;;;;;5.40;4.40;;;24.10;95.60;;;;;;4976796;28;20736;-80
2023/05/04 12:42:32;;;;;;;4.27;3.97;;;24.20;95.40;;;;;;4990066;28;20184;-89
2023/05/04 12:44:57;;;;;;;5.23;4.83;;;24.20;95.20;;;;;;4975399;28;20454;-80